Middleburg Heights, Ohio
Current Conditions -  °F | °C
As of 11:51 PM on Saturday 25 Oct 2014 (Local Time) from KCLE Reporting Station
Clear Clear  
Wind Chill: 56°   Ceiling: Unl
Heat Index: 56°   Visibility: 10mi
Dew Point: 36°   Wind: 14mph
Humidity: 47%   Direction: 290°WNW
Pressure: 29.83"   Gusts: 22mph
Location:  41.3776°N, 81.7863°W
Report Text: KCLE 260351Z 29012G19KT 10SM CLR 13/02 A2983 RMK AO2 SLP100 T01330022
Loading
Personal Weather Stations






























Interactive Weather Map
Tropical Storm Tracking
New forecast layout! Learn more

10-Day Weather Forecast

Advertisements
Track Severe Weather on mobile